TimeCST,TemperatureF,Dew PointF,Humidity,Sea Level PressureIn,VisibilityMPH,Wind Direction,Wind SpeedMPH,Gust SpeedMPH,PrecipitationIn,Events,Conditions,WindDirDegrees,DateUTC
12:53 AM,61.0,52.0,72,29.79,10.0,SSE,9.2,-,N/A,,Partly Cloudy,150,2012-11-09 06:53:00
1:53 AM,59.0,52.0,78,29.78,10.0,SSE,10.4,-,N/A,,Partly Cloudy,160,2012-11-09 07:53:00
2:53 AM,59.0,52.0,78,29.78,10.0,SSE,8.1,-,N/A,,Partly Cloudy,150,2012-11-09 08:53:00
3:53 AM,59.0,52.0,78,29.77,10.0,SSE,10.4,-,N/A,,Scattered Clouds,160,2012-11-09 09:53:00
4:53 AM,59.0,51.1,75,29.77,10.0,SSE,10.4,-,N/A,,Clear,160,2012-11-09 10:53:00
5:53 AM,60.1,51.1,72,29.77,10.0,South,12.7,-,N/A,,Scattered Clouds,180,2012-11-09 11:53:00
6:53 AM,61.0,51.1,70,29.78,10.0,South,15.0,-,N/A,,Mostly Cloudy,180,2012-11-09 12:53:00
7:53 AM,64.0,52.0,65,29.79,10.0,South,15.0,-,N/A,,Mostly Cloudy,180,2012-11-09 13:53:00
8:53 AM,66.0,52.0,60,29.79,10.0,South,19.6,28.8,N/A,,Mostly Cloudy,180,2012-11-09 14:53:00
9:53 AM,69.1,53.1,57,29.79,10.0,South,20.7,27.6,N/A,,Mostly Cloudy,190,2012-11-09 15:53:00
10:53 AM,73.9,55.0,52,29.78,10.0,South,21.9,31.1,N/A,,Scattered Clouds,190,2012-11-09 16:53:00
11:53 AM,77.0,55.9,48,29.75,10.0,South,24.2,31.1,N/A,,Partly Cloudy,180,2012-11-09 17:53:00
12:53 PM,78.1,55.9,46,29.72,10.0,South,24.2,33.4,N/A,,Partly Cloudy,180,2012-11-09 18:53:00
1:53 PM,80.1,55.9,43,29.69,10.0,South,23.0,35.7,N/A,,Clear,180,2012-11-09 19:53:00
2:53 PM,80.1,55.9,43,29.67,10.0,South,25.3,36.8,N/A,,Clear,180,2012-11-09 20:53:00
3:53 PM,79.0,55.0,44,29.67,10.0,South,28.8,36.8,N/A,,Clear,190,2012-11-09 21:53:00
4:53 PM,77.0,55.0,47,29.68,10.0,South,23.0,33.4,N/A,,Clear,180,2012-11-09 22:53:00
5:53 PM,73.9,55.9,53,29.69,10.0,South,21.9,28.8,N/A,,Clear,180,2012-11-09 23:53:00
6:53 PM,73.0,55.9,55,29.70,10.0,South,18.4,26.5,N/A,,Clear,170,2012-11-10 00:53:00
7:53 PM,72.0,57.9,61,29.70,10.0,South,19.6,29.9,N/A,,Clear,170,2012-11-10 01:53:00
8:53 PM,71.1,57.9,63,29.70,10.0,SSE,21.9,31.1,N/A,,Clear,160,2012-11-10 02:53:00
9:53 PM,69.1,57.0,65,29.71,10.0,South,21.9,29.9,N/A,,Clear,170,2012-11-10 03:53:00
10:53 PM,69.1,55.9,63,29.70,10.0,South,23.0,29.9,N/A,,Clear,180,2012-11-10 04:53:00
11:53 PM,68.0,55.0,63,29.70,10.0,South,19.6,-,N/A,,Clear,180,2012-11-10 05:53:00